Time;durP1;ratioP1;P1;durP2;ratioP2;P2;SDS_P1;SDS_P2;PMS_P1;PMS_P2;Temp;Humidity;BMP_temperature;BMP_pressure;BME280_temperature;BME280_humidity;BME280_pressure;Samples;Min_cycle;Max_cycle;Signal;HPM_P1;HPM_P2
2020/12/14 00:00:42;;;;;;;21.58;9.18;;;8.30;99.90;;;;;;4992876;28;20074;-69
2020/12/14 00:03:08;;;;;;;16.25;9.68;;;8.40;99.90;;;;;;4994413;28;20050;-69
2020/12/14 00:05:34;;;;;;;17.85;9.35;;;8.30;99.90;;;;;;4992640;28;20034;-69
2020/12/14 00:07:59;;;;;;;19.70;9.73;;;8.30;99.90;;;;;;4992755;28;20042;-69
2020/12/14 00:10:25;;;;;;;17.42;9.77;;;8.30;99.90;;;;;;4993030;28;20368;-67
2020/12/14 00:12:50;;;;;;;16.52;9.00;;;8.30;99.90;;;;;;4992692;28;20030;-70
2020/12/14 00:15:16;;;;;;;17.23;8.40;;;8.20;99.90;;;;;;4994433;28;20479;-68
2020/12/14 00:17:42;;;;;;;13.40;8.50;;;8.30;99.90;;;;;;4992458;28;20492;-68
2020/12/14 00:20:08;;;;;;;14.27;8.48;;;8.30;99.90;;;;;;4992233;28;20034;-68
2020/12/14 00:22:34;;;;;;;14.20;8.02;;;8.30;99.90;;;;;;4992041;28;20364;-69
2020/12/14 00:25:01;;;;;;;16.90;8.73;;;8.30;99.90;;;;;;4992613;28;20030;-69
2020/12/14 00:27:27;;;;;;;16.13;8.98;;;8.20;99.90;;;;;;4991625;28;20579;-68
2020/12/14 00:29:52;;;;;;;13.43;7.90;;;8.20;99.90;;;;;;4992951;28;20073;-69
2020/12/14 00:32:18;;;;;;;17.48;8.13;;;8.20;99.90;;;;;;4992661;28;20116;-69
2020/12/14 00:34:44;;;;;;;15.75;8.05;;;8.20;99.90;;;;;;4991192;28;20030;-69
2020/12/14 00:37:09;;;;;;;13.82;7.90;;;8.20;99.90;;;;;;4992319;28;20027;-69
2020/12/14 00:39:36;;;;;;;14.93;7.97;;;8.20;99.90;;;;;;4992222;28;20030;-67
2020/12/14 00:42:03;;;;;;;14.98;7.82;;;8.10;99.90;;;;;;4993811;28;20048;-69
2020/12/14 00:44:28;;;;;;;14.13;7.63;;;8.20;99.90;;;;;;4992256;28;20030;-69
2020/12/14 00:46:54;;;;;;;14.07;7.70;;;8.20;99.90;;;;;;4992233;28;20540;-69
2020/12/14 00:49:20;;;;;;;13.57;7.20;;;8.20;99.90;;;;;;4991969;28;20035;-69
2020/12/14 00:51:45;;;;;;;15.18;7.38;;;8.20;99.90;;;;;;4992033;28;20046;-69
2020/12/14 00:54:11;;;;;;;12.60;7.47;;;8.20;99.90;;;;;;4993228;28;20042;-69
2020/12/14 00:56:37;;;;;;;16.60;7.30;;;8.20;99.90;;;;;;4991937;28;20073;-70
2020/12/14 00:59:03;;;;;;;18.30;7.40;;;8.10;99.90;;;;;;4991866;28;20417;-69
2020/12/14 01:01:29;;;;;;;13.02;6.57;;;8.20;99.90;;;;;;4992037;28;20071;-69
2020/12/14 01:03:55;;;;;;;10.57;6.60;;;8.20;99.90;;;;;;4991723;28;20038;-68
2020/12/14 01:06:21;;;;;;;14.05;6.55;;;8.20;99.80;;;;;;4992877;28;20065;-69
2020/12/14 01:08:46;;;;;;;10.60;6.63;;;8.20;99.80;;;;;;4991833;28;20519;-69
2020/12/14 01:11:12;;;;;;;12.50;6.38;;;8.20;99.70;;;;;;4991671;28;20031;-68
2020/12/14 01:13:38;;;;;;;11.38;6.20;;;8.20;99.70;;;;;;4991516;28;20035;-69
2020/12/14 01:16:08;;;;;;;11.57;6.63;;;8.20;99.70;;;;;;4991557;28;20445;-69
2020/12/14 01:18:37;;;;;;;10.80;6.45;;;8.20;99.40;;;;;;4991360;28;20026;-70
2020/12/14 01:21:04;;;;;;;12.45;7.00;;;8.20;99.60;;;;;;4993198;28;20518;-69
2020/12/14 01:23:29;;;;;;;11.07;6.35;;;8.10;99.50;;;;;;4991313;28;20050;-68
2020/12/14 01:25:55;;;;;;;13.30;6.60;;;8.10;99.50;;;;;;4990841;28;20034;-70
2020/12/14 01:28:20;;;;;;;11.70;6.53;;;8.10;99.50;;;;;;4990224;28;20137;-70
2020/12/14 01:30:46;;;;;;;18.17;7.50;;;8.10;99.40;;;;;;4990120;28;20125;-70
2020/12/14 01:33:12;;;;;;;12.52;7.78;;;8.10;99.70;;;;;;4992759;28;20052;-70
2020/12/14 01:35:37;;;;;;;14.55;7.03;;;8.00;99.60;;;;;;4990297;28;20049;-68
2020/12/14 01:38:04;;;;;;;11.75;6.68;;;8.00;99.60;;;;;;4991434;28;20042;-70
2020/12/14 01:40:30;;;;;;;14.38;7.60;;;8.00;99.60;;;;;;4991741;28;20352;-69
2020/12/14 01:42:56;;;;;;;15.00;7.32;;;7.90;99.70;;;;;;4991256;28;20038;-69
2020/12/14 01:45:21;;;;;;;12.75;7.15;;;8.00;99.70;;;;;;4992546;28;20042;-69
2020/12/14 01:47:51;;;;;;;10.35;6.35;;;8.00;99.60;;;;;;4990935;28;20031;-69
2020/12/14 01:50:17;;;;;;;11.65;6.25;;;7.90;99.90;;;;;;4990973;28;20034;-70
2020/12/14 01:52:45;;;;;;;13.68;7.32;;;7.90;99.80;;;;;;4990996;28;20038;-69
2020/12/14 01:55:18;;;;;;;;;;;7.80;99.70;;;;;;4991503;28;20034;-71
2020/12/14 01:57:43;;;;;;;16.20;6.80;;;7.80;99.90;;;;;;4991512;28;20366;-69
2020/12/14 02:00:10;;;;;;;13.57;6.75;;;7.70;99.90;;;;;;4992603;28;20026;-69
2020/12/14 02:02:37;;;;;;;14.87;7.63;;;7.70;99.90;;;;;;4990086;28;20062;-69
2020/12/14 02:05:05;;;;;;;18.30;8.18;;;7.70;99.90;;;;;;4990831;28;20027;-69
2020/12/14 02:07:30;;;;;;;13.43;8.05;;;7.70;99.90;;;;;;4991032;28;20077;-70
2020/12/14 02:09:56;;;;;;;16.80;8.57;;;7.70;99.90;;;;;;4991088;28;20062;-69
2020/12/14 02:12:26;;;;;;;13.57;8.18;;;7.70;99.90;;;;;;4992350;28;20061;-69
2020/12/14 02:14:53;;;;;;;14.02;7.75;;;7.60;99.90;;;;;;4988603;28;20031;-69
2020/12/14 02:17:20;;;;;;;14.75;7.70;;;7.60;99.90;;;;;;4990933;28;20060;-69
2020/12/14 02:19:47;;;;;;;13.98;7.53;;;7.50;99.90;;;;;;4989738;28;20089;-70
2020/12/14 02:22:16;;;;;;;19.02;8.85;;;7.50;99.90;;;;;;4990730;28;20044;-70
2020/12/14 02:25:06;;;;;;;15.35;8.45;;;7.50;99.90;;;;;;4990740;28;20139;-69
2020/12/14 02:27:33;;;;;;;14.73;8.27;;;7.50;99.90;;;;;;4990712;28;20026;-69
2020/12/14 02:29:59;;;;;;;13.98;6.63;;;7.50;99.90;;;;;;4992342;28;20027;-70
2020/12/14 02:32:26;;;;;;;14.52;7.68;;;7.50;99.90;;;;;;4990213;28;20093;-69
2020/12/14 02:34:53;;;;;;;17.33;8.53;;;7.50;99.90;;;;;;4990541;28;20038;-69
2020/12/14 02:37:24;;;;;;;15.70;7.80;;;7.50;99.90;;;;;;4989573;28;20037;-69
2020/12/14 02:39:50;;;;;;;16.33;7.30;;;7.50;99.90;;;;;;4990211;28;20089;-70
2020/12/14 02:42:21;;;;;;;12.95;6.93;;;7.50;99.90;;;;;;4992134;28;20023;-70
2020/12/14 02:44:47;;;;;;;14.07;6.90;;;7.50;99.90;;;;;;4990573;28;20083;-70
2020/12/14 02:47:13;;;;;;;13.52;7.32;;;7.50;99.90;;;;;;4990721;28;20038;-70
2020/12/14 02:49:39;;;;;;;13.07;6.82;;;7.50;99.90;;;;;;4990498;28;20413;-70
2020/12/14 02:52:07;;;;;;;12.05;6.40;;;7.50;99.90;;;;;;4990574;28;20050;-68
2020/12/14 02:54:34;;;;;;;12.95;6.78;;;7.50;99.80;;;;;;4990355;28;20497;-70
2020/12/14 02:56:59;;;;;;;16.77;7.13;;;7.40;99.70;;;;;;4992042;28;20081;-69
2020/12/14 02:59:25;;;;;;;13.88;6.45;;;7.40;99.80;;;;;;4986035;28;20039;-70
2020/12/14 03:01:52;;;;;;;13.13;7.18;;;7.40;99.80;;;;;;4971066;28;20038;-69
2020/12/14 03:04:19;;;;;;;11.25;5.88;;;7.40;99.80;;;;;;4978532;28;20060;-70
2020/12/14 03:06:47;;;;;;;11.93;6.65;;;7.40;99.90;;;;;;4990197;28;20539;-71
2020/12/14 03:09:13;;;;;;;11.95;5.90;;;7.40;99.80;;;;;;4991893;28;20036;-70
2020/12/14 03:11:39;;;;;;;8.82;5.68;;;7.40;99.80;;;;;;4990136;28;20512;-71
2020/12/14 03:14:06;;;;;;;12.38;5.95;;;7.40;99.70;;;;;;4991526;28;20046;-69
2020/12/14 03:16:37;;;;;;;12.55;5.82;;;7.50;99.80;;;;;;4993786;28;20045;-70
2020/12/14 03:19:03;;;;;;;10.55;5.43;;;7.40;99.80;;;;;;4994022;28;20054;-69
2020/12/14 03:21:28;;;;;;;11.45;5.72;;;7.40;99.70;;;;;;4993533;28;20026;-70
2020/12/14 03:23:54;;;;;;;12.43;5.47;;;7.40;99.70;;;;;;4995187;28;20035;-69
2020/12/14 03:26:20;;;;;;;10.02;5.88;;;7.50;99.80;;;;;;4993647;28;20042;-70
2020/12/14 03:28:45;;;;;;;9.00;5.28;;;7.40;99.60;;;;;;4993526;28;20089;-69
2020/12/14 03:31:11;;;;;;;14.32;5.85;;;7.40;99.60;;;;;;4993380;28;20040;-70
2020/12/14 03:33:37;;;;;;;9.10;5.22;;;7.40;99.50;;;;;;4993452;28;20038;-70
2020/12/14 03:36:03;;;;;;;11.48;5.43;;;7.40;99.50;;;;;;4994826;28;20034;-70
2020/12/14 03:38:28;;;;;;;9.63;5.28;;;7.40;99.40;;;;;;4993214;28;20035;-70
2020/12/14 03:40:54;;;;;;;11.50;5.18;;;7.40;99.40;;;;;;4993634;28;20050;-68
2020/12/14 03:43:20;;;;;;;10.05;5.03;;;7.50;99.40;;;;;;4993063;28;20034;-68
2020/12/14 03:45:48;;;;;;;8.80;4.40;;;7.50;99.30;;;;;;4993352;28;20053;-68
2020/12/14 03:48:17;;;;;;;;;;;7.50;99.30;;;;;;4995331;28;20033;-70
2020/12/14 03:50:45;;;;;;;7.10;4.20;;;7.50;99.30;;;;;;4992243;28;19917;-70
2020/12/14 03:53:12;;;;;;;8.85;4.30;;;7.50;99.30;;;;;;4993089;28;20051;-69
2020/12/14 03:55:38;;;;;;;8.40;4.60;;;7.50;99.30;;;;;;4993138;28;20026;-69
2020/12/14 03:58:03;;;;;;;12.30;4.43;;;7.60;99.20;;;;;;4992020;28;20042;-70
2020/12/14 04:00:29;;;;;;;8.68;4.85;;;7.60;99.30;;;;;;4992799;28;20502;-70
2020/12/14 04:02:54;;;;;;;7.78;4.63;;;7.60;99.20;;;;;;4994594;28;20101;-71
2020/12/14 04:05:20;;;;;;;10.25;4.50;;;7.60;99.20;;;;;;4992779;28;20045;-70
2020/12/14 04:07:45;;;;;;;11.13;4.78;;;7.60;99.20;;;;;;4992859;28;20157;-69
2020/12/14 04:10:11;;;;;;;10.20;5.28;;;7.60;99.10;;;;;;4992836;28;20034;-70
2020/12/14 04:12:37;;;;;;;7.82;4.57;;;7.70;99.10;;;;;;4992888;28;20223;-71
2020/12/14 04:15:02;;;;;;;10.20;5.28;;;7.70;99.00;;;;;;4994228;28;20486;-69
2020/12/14 04:17:28;;;;;;;8.32;4.40;;;7.70;99.00;;;;;;4992408;28;20041;-70
2020/12/14 04:19:54;;;;;;;8.00;4.38;;;7.80;98.90;;;;;;4992747;28;20037;-69
2020/12/14 04:22:19;;;;;;;8.68;4.60;;;7.80;98.90;;;;;;4992527;28;20042;-71
2020/12/14 04:24:45;;;;;;;9.55;4.63;;;7.80;98.80;;;;;;4992788;28;20033;-71
2020/12/14 04:27:10;;;;;;;9.48;5.13;;;7.90;98.80;;;;;;4993574;28;20113;-70
2020/12/14 04:29:36;;;;;;;9.77;4.50;;;7.90;98.70;;;;;;4991456;28;20396;-69
2020/12/14 04:32:02;;;;;;;7.22;4.13;;;7.90;98.60;;;;;;4992093;28;20062;-70
2020/12/14 04:34:27;;;;;;;6.20;4.05;;;7.90;98.70;;;;;;4992062;28;20045;-71
2020/12/14 04:36:53;;;;;;;9.20;4.45;;;7.90;98.70;;;;;;4992059;28;20471;-69
2020/12/14 04:39:19;;;;;;;9.77;4.18;;;7.80;98.50;;;;;;4993711;28;20492;-70
2020/12/14 04:41:44;;;;;;;9.93;4.25;;;7.90;98.50;;;;;;4992383;28;20034;-70
2020/12/14 04:44:11;;;;;;;9.15;4.65;;;7.90;98.50;;;;;;4992265;28;20043;-71
2020/12/14 04:46:38;;;;;;;10.90;4.07;;;7.90;98.50;;;;;;4991968;28;20083;-69
2020/12/14 04:49:05;;;;;;;6.30;3.92;;;7.90;98.50;;;;;;4991969;28;20031;-69
2020/12/14 04:51:32;;;;;;;9.15;4.85;;;7.90;98.50;;;;;;4992451;28;20037;-70
2020/12/14 04:54:01;;;;;;;9.02;3.75;;;7.90;98.50;;;;;;4993321;28;20042;-68
2020/12/14 04:56:28;;;;;;;6.72;3.63;;;7.90;98.30;;;;;;4992096;28;20030;-69
2020/12/14 04:58:55;;;;;;;11.77;4.13;;;7.90;98.30;;;;;;4992064;28;20034;-69
2020/12/14 05:01:21;;;;;;;9.50;4.10;;;7.90;98.20;;;;;;4991957;28;20125;-70
2020/12/14 05:03:47;;;;;;;7.97;4.05;;;7.90;98.40;;;;;;4990565;28;20109;-71
2020/12/14 05:06:13;;;;;;;5.78;3.60;;;7.90;98.20;;;;;;4993075;28;20130;-69
2020/12/14 05:08:38;;;;;;;9.45;4.05;;;7.90;98.20;;;;;;4991414;28;20034;-69
2020/12/14 05:11:04;;;;;;;7.80;3.53;;;7.90;98.20;;;;;;4991677;28;20088;-70
2020/12/14 05:13:29;;;;;;;6.15;3.58;;;7.90;98.20;;;;;;4991827;28;20030;-68
2020/12/14 05:15:55;;;;;;;7.93;3.70;;;7.90;98.20;;;;;;4992020;28;20097;-68
2020/12/14 05:18:23;;;;;;;6.95;3.80;;;7.90;98.00;;;;;;4992960;28;20058;-70
2020/12/14 05:20:57;;;;;;;8.95;4.30;;;7.90;98.10;;;;;;4991845;28;20042;-69
2020/12/14 05:23:23;;;;;;;12.13;3.47;;;7.90;98.10;;;;;;4990265;28;20051;-69
2020/12/14 05:25:49;;;;;;;8.73;3.63;;;7.90;98.00;;;;;;4980109;28;20376;-70
2020/12/14 05:28:19;;;;;;;7.25;3.92;;;7.90;97.90;;;;;;4979135;28;20415;-70
2020/12/14 05:30:49;;;;;;;6.35;3.63;;;7.90;98.10;;;;;;4991717;28;20041;-70
2020/12/14 05:33:20;;;;;;;5.88;3.45;;;8.00;97.80;;;;;;4991730;28;20039;-70
2020/12/14 05:35:47;;;;;;;6.13;3.60;;;8.00;97.90;;;;;;4991486;28;20383;-69
2020/12/14 05:38:18;;;;;;;9.15;3.92;;;8.00;97.80;;;;;;4991195;28;20037;-69
2020/12/14 05:40:54;;;;;;;5.80;4.13;;;8.10;97.80;;;;;;4991077;28;20038;-69
2020/12/14 05:43:22;;;;;;;6.05;3.05;;;8.10;97.80;;;;;;4991382;28;20034;-68
2020/12/14 05:45:48;;;;;;;;;;;8.10;97.70;;;;;;4991562;28;20444;-70
2020/12/14 05:48:32;;;;;;;4.78;2.75;;;8.10;97.70;;;;;;4991594;28;20336;-68
2020/12/14 05:51:02;;;;;;;6.65;3.33;;;8.00;97.60;;;;;;4991213;28;20057;-68
2020/12/14 05:53:40;;;;;;;10.30;3.40;;;8.10;97.50;;;;;;4990697;28;20125;-70
2020/12/14 05:56:09;;;;;;;5.97;3.15;;;8.00;97.40;;;;;;4990952;28;20302;-69
2020/12/14 05:58:37;;;;;;;5.50;2.97;;;8.30;97.50;;;;;;4990896;28;20053;-68
2020/12/14 06:01:05;;;;;;;5.07;3.20;;;8.10;97.30;;;;;;4991010;28;20042;-70
2020/12/14 06:03:31;;;;;;;6.75;2.85;;;8.00;97.20;;;;;;4990094;28;20023;-70
2020/12/14 06:06:02;;;;;;;8.32;3.13;;;8.00;97.20;;;;;;4991303;28;20030;-69
2020/12/14 06:08:46;;;;;;;5.57;2.90;;;8.00;97.10;;;;;;4990733;28;20073;-70
2020/12/14 06:11:23;;;;;;;5.93;2.80;;;8.00;97.10;;;;;;4990502;28;20037;-69
2020/12/14 06:13:51;;;;;;;6.35;2.88;;;8.00;97.00;;;;;;4990776;28;20030;-69
2020/12/14 06:16:20;;;;;;;5.70;2.90;;;8.00;97.30;;;;;;4990735;28;20046;-70
2020/12/14 06:18:46;;;;;;;;;;;8.10;97.00;;;;;;4991428;28;20114;-70
2020/12/14 06:21:18;;;;;;;5.50;2.45;;;8.10;96.80;;;;;;4992653;28;19932;-70
2020/12/14 06:23:46;;;;;;;5.57;2.75;;;8.10;97.00;;;;;;4990799;28;20064;-71
2020/12/14 06:26:13;;;;;;;4.13;2.65;;;8.10;96.90;;;;;;4991287;28;20054;-69
2020/12/14 06:28:39;;;;;;;3.90;2.30;;;8.10;97.00;;;;;;4990904;28;20050;-69
2020/12/14 06:31:05;;;;;;;5.10;2.83;;;8.10;96.90;;;;;;4990391;28;20045;-69
2020/12/14 06:33:33;;;;;;;5.20;2.83;;;8.00;96.80;;;;;;4990656;28;20038;-68
2020/12/14 06:36:14;;;;;;;5.20;2.40;;;8.00;96.80;;;;;;4992230;28;20039;-68
2020/12/14 06:38:40;;;;;;;6.93;2.60;;;8.10;96.90;;;;;;4990538;28;20104;-69
2020/12/14 06:41:17;;;;;;;6.18;2.42;;;8.10;96.80;;;;;;4990711;28;20405;-70
2020/12/14 06:43:48;;;;;;;3.92;2.50;;;8.10;96.70;;;;;;4990431;28;20035;-70
2020/12/14 06:46:25;;;;;;;6.28;2.63;;;8.10;96.80;;;;;;4990534;28;20065;-69
2020/12/14 06:48:53;;;;;;;6.13;2.30;;;8.10;96.80;;;;;;4991367;28;20552;-70
2020/12/14 06:51:19;;;;;;;7.35;2.70;;;8.10;96.70;;;;;;4995700;28;20380;-70
2020/12/14 06:53:52;;;;;;;4.63;2.33;;;8.20;96.80;;;;;;4994403;28;20054;-70
2020/12/14 06:56:27;;;;;;;6.03;2.58;;;8.10;96.70;;;;;;4994063;28;20127;-71
2020/12/14 06:58:53;;;;;;;7.13;2.83;;;8.00;96.70;;;;;;4994365;28;20034;-69
2020/12/14 07:01:34;;;;;;;7.22;2.70;;;8.10;96.80;;;;;;4994456;28;20030;-70
2020/12/14 07:04:15;;;;;;;4.40;2.42;;;8.10;96.60;;;;;;4994208;28;20034;-69
2020/12/14 07:06:41;;;;;;;5.93;3.22;;;8.10;96.60;;;;;;4994171;28;20022;-68
2020/12/14 07:09:31;;;;;;;5.30;2.70;;;8.10;96.60;;;;;;4995569;28;20133;-69
2020/12/14 07:12:09;;;;;;;4.40;2.58;;;8.10;96.60;;;;;;4993557;28;20108;-70
2020/12/14 07:14:44;;;;;;;9.25;3.40;;;8.10;96.60;;;;;;5013534;28;20033;-70
2020/12/14 07:17:24;;;;;;;6.25;3.42;;;8.30;96.70;;;;;;5013675;28;20109;-69
2020/12/14 07:19:52;;;;;;;6.10;2.67;;;8.10;96.60;;;;;;5013233;28;20485;-71
2020/12/14 07:22:25;;;;;;;;;;;8.10;96.60;;;;;;5014045;28;20038;-71
2020/12/14 07:25:02;;;;;;;6.53;3.20;;;8.10;96.40;;;;;;5013574;28;20275;-70
2020/12/14 07:27:29;;;;;;;6.65;3.50;;;8.10;96.50;;;;;;5013250;28;20029;-71
2020/12/14 07:30:14;;;;;;;4.32;2.40;;;8.10;96.40;;;;;;5014051;28;20535;-71
2020/12/14 07:32:40;;;;;;;6.45;2.55;;;8.10;96.30;;;;;;5013168;28;20044;-70
2020/12/14 07:35:09;;;;;;;5.50;3.05;;;8.10;96.30;;;;;;5013537;28;20033;-70
2020/12/14 07:37:35;;;;;;;6.95;2.55;;;8.10;96.30;;;;;;5013164;28;20052;-70
2020/12/14 07:40:01;;;;;;;3.63;2.45;;;8.20;96.30;;;;;;5012262;28;20038;-71
2020/12/14 07:42:29;;;;;;;8.35;2.83;;;8.20;96.30;;;;;;5012958;28;20034;-69
2020/12/14 07:45:14;;;;;;;7.93;2.95;;;8.20;96.20;;;;;;5013327;28;20033;-69
2020/12/14 07:47:42;;;;;;;6.70;2.50;;;8.20;96.10;;;;;;5012432;28;20129;-71
2020/12/14 07:50:22;;;;;;;4.93;2.65;;;8.30;96.00;;;;;;5012999;28;20095;-70
2020/12/14 07:52:50;;;;;;;6.95;2.30;;;8.30;95.90;;;;;;5012490;28;20053;-70
2020/12/14 07:55:16;;;;;;;3.77;2.10;;;8.30;95.90;;;;;;5012978;28;20040;-70
2020/12/14 07:57:44;;;;;;;3.78;2.25;;;8.30;95.90;;;;;;5013123;28;21090;-70
2020/12/14 08:00:11;;;;;;;;;;;8.30;95.80;;;;;;5013644;28;20507;-71
2020/12/14 08:02:39;;;;;;;4.37;2.07;;;8.30;95.90;;;;;;5012608;28;20020;-70
2020/12/14 08:05:07;;;;;;;7.43;2.73;;;8.30;95.80;;;;;;5012654;28;20038;-70
2020/12/14 08:08:03;;;;;;;6.20;2.42;;;8.30;95.80;;;;;;5012860;28;20459;-71
2020/12/14 08:10:37;;;;;;;3.88;2.20;;;8.30;95.70;;;;;;5007805;28;20034;-70
2020/12/14 08:13:10;;;;;;;6.00;2.30;;;8.40;95.80;;;;;;5012590;28;20036;-70
2020/12/14 08:15:37;;;;;;;5.00;2.63;;;8.40;95.70;;;;;;5012428;28;20443;-70
2020/12/14 08:18:11;;;;;;;5.07;1.92;;;8.40;95.50;;;;;;5013871;28;20177;-70
2020/12/14 08:20:42;;;;;;;6.80;2.10;;;8.50;95.50;;;;;;5011247;28;20392;-68
2020/12/14 08:23:22;;;;;;;3.95;2.13;;;8.50;95.50;;;;;;5011150;28;20436;-69
2020/12/14 08:25:52;;;;;;;7.78;3.08;;;8.50;95.40;;;;;;5012072;28;20464;-67
2020/12/14 08:28:36;;;;;;;4.90;2.03;;;8.60;95.30;;;;;;5012304;28;20064;-68
2020/12/14 08:31:05;;;;;;;7.18;1.88;;;8.60;95.10;;;;;;5012221;28;20060;-68
2020/12/14 08:33:31;;;;;;;6.28;1.73;;;8.60;95.10;;;;;;5011852;28;20021;-69
2020/12/14 08:35:57;;;;;;;3.70;1.63;;;8.60;95.10;;;;;;5012511;28;20026;-67
2020/12/14 08:38:27;;;;;;;4.07;1.80;;;8.60;95.00;;;;;;5012238;28;20049;-66
2020/12/14 08:41:11;;;;;;;6.68;1.73;;;8.70;95.00;;;;;;5012117;28;20164;-67
2020/12/14 08:43:37;;;;;;;7.30;1.98;;;8.70;94.90;;;;;;5011714;28;20041;-68
2020/12/14 08:46:17;;;;;;;4.45;1.60;;;8.70;94.70;;;;;;5011993;28;20527;-68
2020/12/14 08:48:46;;;;;;;5.50;1.95;;;8.80;95.00;;;;;;5010546;28;20053;-69
2020/12/14 08:51:26;;;;;;;6.18;2.60;;;8.80;94.80;;;;;;5013049;28;20025;-69
2020/12/14 08:53:53;;;;;;;3.97;1.70;;;8.90;94.70;;;;;;5010734;28;20060;-69
2020/12/14 08:56:21;;;;;;;3.63;1.50;;;9.00;94.50;;;;;;5011605;28;20061;-77
2020/12/14 08:58:57;;;;;;;5.45;1.67;;;9.00;94.60;;;;;;5011946;28;20041;-77
2020/12/14 09:01:28;;;;;;;4.53;1.52;;;9.10;94.50;;;;;;5011554;28;20121;-73
2020/12/14 09:04:00;;;;;;;8.02;1.73;;;9.30;94.70;;;;;;5011567;28;20037;-77
2020/12/14 09:06:32;;;;;;;12.32;3.00;;;9.30;94.50;;;;;;5011719;28;20045;-76
2020/12/14 09:08:57;;;;;;;5.07;1.80;;;9.30;94.20;;;;;;5012965;28;20026;-74
2020/12/14 09:11:28;;;;;;;6.20;1.45;;;9.40;94.30;;;;;;5011125;28;20124;-69
2020/12/14 09:14:04;;;;;;;4.03;1.52;;;9.40;94.40;;;;;;5010422;28;20503;-70
2020/12/14 09:16:30;;;;;;;6.18;1.70;;;9.40;94.20;;;;;;5011556;28;20117;-69
2020/12/14 09:18:56;;;;;;;6.95;1.70;;;9.40;94.30;;;;;;5011155;28;20057;-69
2020/12/14 09:21:22;;;;;;;4.15;1.40;;;9.40;94.30;;;;;;5012783;28;20026;-70
2020/12/14 09:24:07;;;;;;;5.15;1.45;;;9.50;94.60;;;;;;5011583;28;20034;-74
2020/12/14 09:26:32;;;;;;;4.35;1.15;;;9.60;94.40;;;;;;5010261;28;20030;-73
2020/12/14 09:28:58;;;;;;;4.47;1.33;;;9.50;94.40;;;;;;5010864;28;20427;-70
2020/12/14 09:31:23;;;;;;;5.57;1.10;;;9.50;94.10;;;;;;5011291;28;20045;-70
2020/12/14 09:33:49;;;;;;;5.68;1.50;;;9.50;94.30;;;;;;5009792;28;20034;-70
2020/12/14 09:36:16;;;;;;;3.15;1.40;;;9.50;94.20;;;;;;5012706;28;20021;-70
2020/12/14 09:38:41;;;;;;;3.55;1.40;;;9.50;94.40;;;;;;5011018;28;20083;-72
2020/12/14 09:41:07;;;;;;;2.13;1.27;;;9.60;94.40;;;;;;5011057;28;20598;-71
2020/12/14 09:43:32;;;;;;;3.55;1.17;;;9.50;94.30;;;;;;5010909;28;20053;-69
2020/12/14 09:45:59;;;;;;;1.88;1.00;;;9.50;94.40;;;;;;5010918;28;20444;-69
2020/12/14 09:48:25;;;;;;;3.28;1.27;;;9.50;94.40;;;;;;5010945;28;20401;-68
2020/12/14 09:50:51;;;;;;;2.22;1.20;;;9.50;94.40;;;;;;5012348;28;20236;-69
2020/12/14 09:53:16;;;;;;;3.47;1.20;;;9.50;94.40;;;;;;5010604;28;20108;-71
2020/12/14 09:55:43;;;;;;;2.97;1.20;;;9.60;94.30;;;;;;5011195;28;20230;-71
2020/12/14 09:58:09;;;;;;;2.40;1.13;;;9.60;94.20;;;;;;5010883;28;20022;-71
2020/12/14 10:00:34;;;;;;;2.08;1.10;;;9.70;94.20;;;;;;5010348;28;20344;-70
2020/12/14 10:03:00;;;;;;;1.60;0.90;;;9.70;94.00;;;;;;5011140;28;20041;-71
2020/12/14 10:05:26;;;;;;;5.15;1.20;;;9.70;94.00;;;;;;5010599;28;20129;-69
2020/12/14 10:07:51;;;;;;;4.47;1.35;;;9.70;94.20;;;;;;5010456;28;20041;-71
2020/12/14 10:10:17;;;;;;;1.80;0.98;;;9.70;94.40;;;;;;5010873;28;20034;-72
2020/12/14 10:12:43;;;;;;;3.75;1.30;;;9.70;94.40;;;;;;5009364;28;20061;-69
2020/12/14 10:15:09;;;;;;;2.30;0.93;;;9.80;94.50;;;;;;5012224;28;20045;-68
2020/12/14 10:17:36;;;;;;;3.50;1.35;;;9.80;94.30;;;;;;5010658;28;20460;-70
2020/12/14 10:20:04;;;;;;;2.53;1.33;;;9.80;94.30;;;;;;5010720;28;20468;-68
2020/12/14 10:22:30;;;;;;;3.78;1.15;;;9.80;94.30;;;;;;5010526;28;20034;-68
2020/12/14 10:24:56;;;;;;;2.83;1.45;;;9.90;94.40;;;;;;5013452;28;20038;-70
2020/12/14 10:27:21;;;;;;;2.70;1.25;;;9.90;94.50;;;;;;5015854;28;20044;-70
2020/12/14 10:29:47;;;;;;;6.45;1.30;;;9.90;94.70;;;;;;5014652;28;20026;-69
2020/12/14 10:32:13;;;;;;;2.33;0.95;;;10.00;94.40;;;;;;5014491;28;20036;-71
2020/12/14 10:34:39;;;;;;;4.43;1.15;;;9.90;95.00;;;;;;5014650;28;20364;-71
2020/12/14 10:37:05;;;;;;;4.38;1.35;;;9.80;95.00;;;;;;5014182;28;20080;-71
2020/12/14 10:39:30;;;;;;;6.30;1.73;;;9.90;95.20;;;;;;5013845;28;20125;-72
2020/12/14 10:41:56;;;;;;;2.08;1.20;;;9.90;95.80;;;;;;5015766;28;20033;-71
2020/12/14 10:44:22;;;;;;;9.07;1.20;;;9.90;96.80;;;;;;5014521;28;20068;-72
2020/12/14 10:46:47;;;;;;;3.10;1.50;;;9.80;97.40;;;;;;5009339;28;20501;-70
2020/12/14 10:49:13;;;;;;;5.93;1.40;;;9.80;97.80;;;;;;5000219;28;20041;-70
2020/12/14 10:51:39;;;;;;;4.07;1.20;;;9.80;97.70;;;;;;5013946;28;20060;-70
2020/12/14 10:54:05;;;;;;;5.60;1.15;;;9.80;97.80;;;;;;5015355;28;20117;-71
2020/12/14 10:56:30;;;;;;;3.63;1.15;;;9.80;97.50;;;;;;5013959;28;20038;-72
2020/12/14 10:58:56;;;;;;;4.93;1.48;;;9.80;97.60;;;;;;5013662;28;20453;-71
2020/12/14 11:01:23;;;;;;;5.68;1.20;;;9.80;97.50;;;;;;5013735;28;20049;-72
2020/12/14 11:03:48;;;;;;;2.17;0.88;;;9.80;97.60;;;;;;5013780;28;20044;-71
2020/12/14 11:06:14;;;;;;;3.63;0.80;;;9.80;97.50;;;;;;5014189;28;20355;-71
2020/12/14 11:08:40;;;;;;;3.30;1.38;;;9.90;97.70;;;;;;5013734;28;20088;-72
2020/12/14 11:11:05;;;;;;;10.20;2.38;;;9.90;97.80;;;;;;5014043;28;20423;-71
2020/12/14 11:13:31;;;;;;;3.45;1.10;;;10.00;97.20;;;;;;5013632;28;20061;-70
2020/12/14 11:15:59;;;;;;;2.72;0.90;;;10.00;97.20;;;;;;5013197;28;20113;-72
2020/12/14 11:18:24;;;;;;;1.33;0.88;;;10.00;97.30;;;;;;5013794;28;20025;-73
2020/12/14 11:20:50;;;;;;;4.13;1.02;;;10.00;97.20;;;;;;5015010;28;20033;-71
2020/12/14 11:23:16;;;;;;;2.75;0.90;;;10.00;97.20;;;;;;5013694;28;20468;-71
2020/12/14 11:25:41;;;;;;;1.80;1.23;;;10.00;97.20;;;;;;5013562;28;20061;-72
2020/12/14 11:28:07;;;;;;;4.80;1.40;;;10.10;97.40;;;;;;5012398;28;20049;-71
2020/12/14 11:30:33;;;;;;;2.72;1.20;;;10.10;97.60;;;;;;5013356;28;20030;-71
2020/12/14 11:32:58;;;;;;;2.15;1.10;;;10.10;97.60;;;;;;5014897;28;20033;-71
2020/12/14 11:35:24;;;;;;;5.15;1.48;;;10.10;97.60;;;;;;5013077;28;20034;-70
2020/12/14 11:37:49;;;;;;;3.70;0.93;;;10.00;97.60;;;;;;5013226;28;20460;-70
2020/12/14 11:40:15;;;;;;;2.75;1.25;;;10.00;97.80;;;;;;5013208;28;20478;-70
2020/12/14 11:42:41;;;;;;;4.88;1.27;;;10.10;97.80;;;;;;5012939;28;20033;-72
2020/12/14 11:45:09;;;;;;;2.00;1.25;;;10.00;97.80;;;;;;5014754;28;20037;-71
2020/12/14 11:47:35;;;;;;;3.80;1.23;;;10.00;98.00;;;;;;5013067;28;20070;-70
2020/12/14 11:50:02;;;;;;;3.70;1.20;;;10.10;97.90;;;;;;5012879;28;20073;-71
2020/12/14 11:52:27;;;;;;;2.80;1.25;;;10.00;97.90;;;;;;5012933;28;20030;-71
2020/12/14 11:54:53;;;;;;;2.75;1.10;;;10.00;97.90;;;;;;5013294;28;20108;-71
2020/12/14 11:57:19;;;;;;;5.80;1.42;;;10.10;97.90;;;;;;5014461;28;20037;-71
2020/12/14 11:59:44;;;;;;;2.58;1.00;;;10.10;97.90;;;;;;5012890;28;20064;-71
2020/12/14 12:02:10;;;;;;;6.57;1.52;;;10.10;97.90;;;;;;5012825;28;20052;-71
2020/12/14 12:04:36;;;;;;;4.78;0.98;;;10.10;98.00;;;;;;5011594;28;20037;-73
2020/12/14 12:07:05;;;;;;;7.30;1.17;;;10.10;97.90;;;;;;5012449;28;20049;-72
2020/12/14 12:09:34;;;;;;;9.15;1.42;;;10.10;97.90;;;;;;5010162;28;20029;-71
2020/12/14 12:12:01;;;;;;;2.95;1.15;;;10.10;98.00;;;;;;5014146;28;20018;-71
2020/12/14 12:14:26;;;;;;;3.78;1.08;;;10.10;98.00;;;;;;5012783;28;20038;-72
2020/12/14 12:16:52;;;;;;;5.03;1.20;;;10.10;98.10;;;;;;5012273;28;20088;-72
2020/12/14 12:19:18;;;;;;;3.83;1.40;;;10.10;98.20;;;;;;5012426;28;20603;-71
2020/12/14 12:21:48;;;;;;;4.32;1.10;;;10.10;98.30;;;;;;5012101;28;20034;-72
2020/12/14 12:24:13;;;;;;;1.23;0.95;;;10.10;98.40;;;;;;5012886;28;20043;-72
2020/12/14 12:26:39;;;;;;;1.65;1.10;;;10.10;98.40;;;;;;5012204;28;20040;-72
2020/12/14 12:29:05;;;;;;;2.30;1.05;;;10.10;98.60;;;;;;5012137;28;20048;-71
2020/12/14 12:31:31;;;;;;;2.20;1.10;;;10.10;98.60;;;;;;5011056;28;20061;-70
2020/12/14 12:33:56;;;;;;;2.45;1.48;;;10.10;98.70;;;;;;5011965;28;20033;-71
2020/12/14 12:36:22;;;;;;;1.70;1.20;;;10.10;98.80;;;;;;5013737;28;20030;-71
2020/12/14 12:38:48;;;;;;;2.00;1.13;;;10.10;99.00;;;;;;5011901;28;20106;-71
2020/12/14 12:41:13;;;;;;;2.42;1.23;;;10.10;98.90;;;;;;5012106;28;20121;-70
2020/12/14 12:43:39;;;;;;;2.05;1.10;;;10.10;99.00;;;;;;5012098;28;20042;-71
2020/12/14 12:46:04;;;;;;;4.28;1.40;;;10.10;99.10;;;;;;5009480;28;20061;-71
2020/12/14 12:48:30;;;;;;;3.38;1.27;;;10.20;99.10;;;;;;5011491;28;20443;-72
2020/12/14 12:50:58;;;;;;;5.50;1.20;;;10.20;99.20;;;;;;5013219;28;20022;-71
2020/12/14 12:53:25;;;;;;;;;;;10.20;99.30;;;;;;5012026;28;20129;-72
2020/12/14 12:55:53;;;;;;;4.70;1.10;;;10.20;99.40;;;;;;5010600;28;19913;-70
2020/12/14 12:58:19;;;;;;;6.97;1.17;;;10.10;99.40;;;;;;5011817;28;20037;-71